Time;durP1;ratioP1;P1;durP2;ratioP2;P2;SDS_P1;SDS_P2;PMS_P1;PMS_P2;Temp;Humidity;BMP_temperature;BMP_pressure;BME280_temperature;BME280_humidity;BME280_pressure;Samples;Min_cycle;Max_cycle;Signal;HPM_P1;HPM_P2
2023/08/21 00:01:35;;;;;;;5.97;4.60;;;;;;;26.44;70.87;101022.16;4860899;29;20218;-70
2023/08/21 00:04:02;;;;;;;10.40;5.10;;;;;;;26.44;70.55;101024.03;4862270;29;20689;-69
2023/08/21 00:06:30;;;;;;;8.75;5.18;;;;;;;26.43;70.67;101019.66;4860145;29;20218;-68
2023/08/21 00:08:58;;;;;;;6.45;4.65;;;;;;;26.42;70.64;101015.28;4858609;29;20869;-70
2023/08/21 00:11:26;;;;;;;8.93;5.18;;;;;;;26.41;70.49;101011.72;4862483;29;20224;-68
2023/08/21 00:13:55;;;;;;;8.55;4.78;;;;;;;26.41;70.49;101014.44;4858665;29;21016;-70
2023/08/21 00:16:23;;;;;;;6.85;4.95;;;;;;;26.39;70.51;101011.13;4860270;29;20336;-68
2023/08/21 00:18:51;;;;;;;8.60;4.97;;;;;;;26.38;70.55;101012.22;4859271;29;20268;-68
2023/08/21 00:21:19;;;;;;;7.88;5.07;;;;;;;26.35;70.54;101012.69;4859481;29;20328;-68
2023/08/21 00:23:47;;;;;;;8.43;4.97;;;;;;;26.35;70.62;101012.69;4861855;29;20673;-68
2023/08/21 00:26:15;;;;;;;10.13;5.47;;;;;;;26.35;70.19;101012.69;4859716;29;20245;-70
2023/08/21 00:28:42;;;;;;;5.68;4.50;;;;;;;26.34;70.09;101013.75;4863287;29;20908;-70
2023/08/21 00:31:12;;;;;;;7.53;5.32;;;;;;;26.32;70.33;101018.59;4860176;29;20239;-68
2023/08/21 00:33:40;;;;;;;7.03;5.25;;;;;;;26.30;70.51;101012.56;4858047;29;20279;-69
2023/08/21 00:36:07;;;;;;;8.27;5.70;;;;;;;26.29;70.69;101016.38;4856403;29;20322;-67
2023/08/21 00:38:35;;;;;;;6.55;5.10;;;;;;;26.30;70.58;101015.28;4858475;29;20270;-66
2023/08/21 00:41:03;;;;;;;9.82;6.22;;;;;;;26.29;70.57;101012.84;4859308;29;20780;-67
2023/08/21 00:43:31;;;;;;;7.32;5.63;;;;;;;26.30;70.73;101009.06;4859592;29;20446;-68
2023/08/21 00:45:59;;;;;;;8.55;5.13;;;;;;;26.25;70.95;101001.56;4860038;29;20321;-67
2023/08/21 00:48:28;;;;;;;7.03;5.53;;;;;;;26.24;70.86;101003.47;4860080;29;20225;-69
2023/08/21 00:50:56;;;;;;;7.97;5.97;;;;;;;26.24;70.70;101006.19;4861115;29;20670;-68
2023/08/21 00:53:24;;;;;;;9.43;5.38;;;;;;;26.23;70.79;101011.84;4860601;29;20749;-68
2023/08/21 00:55:52;;;;;;;9.20;5.38;;;;;;;26.22;70.60;101005.56;4861223;29;20262;-70
2023/08/21 00:58:20;;;;;;;8.50;5.53;;;;;;;26.20;70.94;101007.72;4858704;29;20641;-69
2023/08/21 01:00:51;;;;;;;11.75;5.72;;;;;;;26.19;70.88;101013.41;4861766;29;20211;-68
2023/08/21 01:03:19;;;;;;;8.18;5.95;;;;;;;26.17;70.71;101010.09;4863142;29;20232;-69
2023/08/21 01:05:48;;;;;;;7.13;5.72;;;;;;;26.14;70.96;101011.38;4861210;29;20234;-68
2023/08/21 01:08:24;;;;;;;9.45;5.95;;;;;;;26.14;70.80;101014.09;4859907;29;20259;-67
2023/08/21 01:10:57;;;;;;;12.43;6.43;;;;;;;26.11;70.99;101009.16;4861285;29;20245;-68
2023/08/21 01:13:35;;;;;;;9.95;6.60;;;;;;;26.11;71.26;101006.44;4860821;29;20291;-68
2023/08/21 01:16:05;;;;;;;7.10;5.60;;;;;;;26.10;71.10;101012.09;4859276;29;20230;-69
2023/08/21 01:18:34;;;;;;;10.73;6.32;;;;;;;26.08;70.95;101008.78;4858844;29;20222;-68
2023/08/21 01:21:05;;;;;;;8.18;6.53;;;;;;;26.06;71.25;101013.63;4860631;29;20226;-70
2023/08/21 01:23:35;;;;;;;8.82;5.97;;;;;;;26.02;71.61;101017.91;4858828;29;20326;-68
2023/08/21 01:26:04;;;;;;;9.05;5.97;;;;;;;26.00;71.50;101012.69;4859025;29;20287;-68
2023/08/21 01:28:33;;;;;;;7.82;6.43;;;;;;;26.00;71.45;101012.69;4857741;29;20455;-68
2023/08/21 01:31:08;;;;;;;15.18;6.43;;;;;;;25.98;71.58;101019.41;4858722;29;20290;-69
2023/08/21 01:33:41;;;;;;;9.45;6.38;;;;;;;25.98;71.77;101019.41;4859811;29;20251;-69
2023/08/21 01:36:09;;;;;;;7.30;6.40;;;;;;;25.95;71.60;101018.00;4859653;29;20225;-69
2023/08/21 01:38:39;;;;;;;8.85;6.57;;;;;;;25.95;71.60;101033.50;4859198;29;20219;-68
2023/08/21 01:41:07;;;;;;;8.45;6.55;;;;;;;25.94;71.82;101026.41;4859831;29;20218;-72
2023/08/21 01:43:34;;;;;;;10.40;7.30;;;;;;;25.92;71.92;101025.81;4856728;29;20218;-68
2023/08/21 01:46:03;;;;;;;10.35;7.03;;;;;;;25.92;71.83;101029.34;4861306;29;20314;-67
2023/08/21 01:48:31;;;;;;;10.15;6.57;;;;;;;25.91;71.90;101035.84;4863643;29;20305;-66
2023/08/21 01:51:01;;;;;;;10.45;7.68;;;;;;;25.89;71.89;101027.09;4861279;29;20211;-68
2023/08/21 01:53:29;;;;;;;9.43;7.13;;;;;;;25.86;71.82;101022.94;4860799;29;20291;-69
2023/08/21 01:55:58;;;;;;;12.68;7.68;;;;;;;25.88;72.16;101024.63;4858629;29;20687;-68
2023/08/21 01:58:25;;;;;;;12.25;7.75;;;;;;;25.84;72.01;101025.09;4857232;29;20221;-67
2023/08/21 02:00:53;;;;;;;13.50;7.40;;;;;;;25.84;72.09;101025.09;4858888;29;20215;-68
2023/08/21 02:03:21;;;;;;;8.55;6.55;;;;;;;25.83;72.21;101028.88;4859879;29;20756;-68
2023/08/21 02:05:49;;;;;;;10.80;7.10;;;;;;;25.82;72.10;101031.81;4859803;29;20218;-68
2023/08/21 02:08:18;;;;;;;9.60;7.13;;;;;;;25.81;72.48;101030.16;4863304;29;20282;-69
2023/08/21 02:10:52;;;;;;;10.68;7.53;;;;;;;25.79;72.47;101035.00;4859825;29;20297;-71
2023/08/21 02:13:21;;;;;;;11.43;7.18;;;;;;;25.76;72.63;101038.22;4860190;29;20218;-70
2023/08/21 02:15:49;;;;;;;11.57;7.50;;;;;;;25.75;72.71;101037.38;4859631;29;20318;-69
2023/08/21 02:18:17;;;;;;;8.15;6.75;;;;;;;25.74;72.63;101041.16;4857611;29;20225;-68
2023/08/21 02:20:45;;;;;;;17.95;7.68;;;;;;;25.73;72.60;101044.09;4858934;29;20228;-68
2023/08/21 02:23:12;;;;;;;9.98;7.47;;;;;;;25.71;72.87;101041.59;4858741;29;20225;-68
2023/08/21 02:25:40;;;;;;;11.82;7.53;;;;;;;25.70;72.96;101039.94;4858386;29;20218;-68
2023/08/21 02:28:08;;;;;;;10.93;7.30;;;;;;;25.69;72.86;101038.28;4860256;29;20214;-67
2023/08/21 02:30:41;;;;;;;9.63;7.30;;;;;;;25.68;73.02;101036.63;4857267;29;20223;-69
2023/08/21 02:33:08;;;;;;;9.10;7.45;;;;;;;25.66;73.07;101038.78;4858332;29;20202;-67
2023/08/21 02:35:36;;;;;;;10.85;7.00;;;;;;;25.65;72.91;101042.56;4858906;29;20330;-69
2023/08/21 02:38:04;;;;;;;10.00;7.57;;;;;;;25.64;73.15;101040.91;4857603;29;20588;-68
2023/08/21 02:40:32;;;;;;;12.57;8.57;;;;;;;25.62;73.25;101043.00;4857045;29;20214;-68
2023/08/21 02:42:59;;;;;;;10.13;7.68;;;;;;;25.61;73.29;101040.53;4857498;29;20349;-69
2023/08/21 02:45:27;;;;;;;10.77;8.30;;;;;;;25.58;73.33;101041.81;4858688;29;20203;-67
2023/08/21 02:47:56;;;;;;;10.68;7.43;;;;;;;25.57;73.41;101039.31;4856402;29;20213;-67
2023/08/21 02:50:24;;;;;;;9.52;7.68;;;;;;;25.56;73.52;101038.50;4859630;29;20322;-67
2023/08/21 02:52:52;;;;;;;12.90;7.57;;;;;;;25.55;73.58;101038.72;4858581;29;20218;-68
2023/08/21 02:55:20;;;;;;;12.45;8.00;;;;;;;25.56;73.35;101043.91;4857676;29;20301;-69
2023/08/21 02:57:48;;;;;;;13.00;7.78;;;;;;;25.54;73.40;101042.47;4859288;29;20262;-67
2023/08/21 03:00:16;;;;;;;9.20;7.45;;;;;;;25.51;73.62;101042.97;4856605;29;20669;-69
2023/08/21 03:02:44;;;;;;;11.18;8.20;;;;;;;25.49;73.63;101037.78;4859015;29;20644;-68
2023/08/21 03:05:14;;;;;;;9.95;7.85;;;;;;;25.47;73.73;101032.56;4857518;29;20209;-69
2023/08/21 03:07:42;;;;;;;9.20;7.68;;;;;;;25.49;73.62;101038.59;4858144;29;20218;-68
2023/08/21 03:10:10;;;;;;;13.00;8.77;;;;;;;25.49;73.44;101026.91;4857360;29;20233;-69
2023/08/21 03:12:38;;;;;;;10.23;8.35;;;;;;;25.48;73.54;101030.69;4857746;29;20217;-68
2023/08/21 03:15:07;;;;;;;10.55;8.25;;;;;;;25.47;73.44;101029.03;4856737;29;20217;-67
2023/08/21 03:17:35;;;;;;;14.95;8.85;;;;;;;25.46;73.54;101038.22;4859480;29;20301;-68
2023/08/21 03:20:04;;;;;;;9.68;7.90;;;;;;;25.44;73.67;101034.91;4859053;29;20215;-68
2023/08/21 03:22:33;;;;;;;11.02;8.48;;;;;;;25.41;73.65;101040.81;4858638;29;20214;-67
2023/08/21 03:25:01;;;;;;;9.82;7.78;;;;;;;25.40;73.69;101033.72;4859897;29;20202;-69
2023/08/21 03:27:29;;;;;;;9.35;8.05;;;;;;;25.38;73.82;101036.66;4856703;29;20206;-69
2023/08/21 03:30:00;;;;;;;10.32;7.65;;;;;;;25.38;73.63;101033.97;4859835;29;20235;-68
2023/08/21 03:32:28;;;;;;;10.07;7.95;;;;;;;25.38;73.95;101033.97;4861529;29;20294;-70
2023/08/21 03:34:56;;;;;;;9.35;7.60;;;;;;;25.36;74.02;101032.53;4860368;29;20234;-69
2023/08/21 03:37:24;;;;;;;13.48;8.80;;;;;;;25.32;73.95;101036.78;4856420;29;21448;-68
2023/08/21 03:39:53;;;;;;;11.95;8.38;;;;;;;25.31;73.98;101027.81;4857889;29;20214;-68
2023/08/21 03:42:21;;;;;;;11.50;7.80;;;;;;;25.32;74.02;101036.78;4862255;29;20237;-68
2023/08/21 03:44:50;;;;;;;9.93;7.95;;;;;;;25.29;74.29;101037.22;4858243;29;20226;-68
2023/08/21 03:47:17;;;;;;;10.13;7.95;;;;;;;25.28;74.23;101030.13;4855987;29;20218;-68
2023/08/21 03:49:48;;;;;;;12.48;8.82;;;;;;;25.25;74.31;101036.84;4857171;29;20693;-68
2023/08/21 03:52:15;;;;;;;13.57;8.00;;;;;;;25.23;74.44;101040.88;4858068;29;20242;-68
2023/08/21 03:54:43;;;;;;;12.60;8.45;;;;;;;25.22;74.45;101047.34;4861197;29;20796;-67
2023/08/21 03:57:12;;;;;;;9.70;8.18;;;;;;;25.21;74.59;101042.97;4858352;29;20853;-66
2023/08/21 03:59:40;;;;;;;11.93;8.40;;;;;;;25.20;74.33;101050.31;4860432;29;20215;-68
2023/08/21 04:02:07;;;;;;;10.77;8.25;;;;;;;25.19;74.51;101042.38;4860518;29;20306;-66
2023/08/21 04:04:35;;;;;;;10.02;8.27;;;;;;;25.19;74.39;101053.25;4864679;29;20259;-68
2023/08/21 04:07:03;;;;;;;11.93;8.68;;;;;;;25.19;74.55;101050.53;4863191;29;20345;-67
2023/08/21 04:09:31;;;;;;;10.68;8.38;;;;;;;25.18;74.57;101051.56;4861654;29;20219;-69
2023/08/21 04:11:59;;;;;;;11.20;8.70;;;;;;;25.14;74.72;101058.53;4861651;29;20211;-70
2023/08/21 04:14:28;;;;;;;13.55;9.20;;;;;;;25.03;75.38;101055.53;4861345;29;20223;-67
2023/08/21 04:16:55;;;;;;;15.48;8.38;;;;;;;24.93;75.97;101060.69;4860772;29;20264;-70
2023/08/21 04:19:24;;;;;;;11.98;8.60;;;;;;;24.85;76.35;101063.66;4861463;29;20240;-66
2023/08/21 04:21:52;;;;;;;13.20;8.73;;;;;;;24.82;76.70;101064.13;4861389;29;20876;-69
2023/08/21 04:24:19;;;;;;;10.02;8.35;;;;;;;24.82;76.67;101074.97;4860870;29;20826;-70
2023/08/21 04:26:47;;;;;;;9.25;7.90;;;;;;;24.86;76.65;101057.19;4863897;29;20943;-68
2023/08/21 04:29:15;;;;;;;8.90;8.00;;;;;;;24.88;76.40;101062.41;4862361;29;20636;-67
2023/08/21 04:31:44;;;;;;;9.77;8.45;;;;;;;24.93;76.07;101063.38;4863637;29;20226;-68
2023/08/21 04:34:12;;;;;;;11.68;8.40;;;;;;;24.96;75.91;101068.38;4862441;29;20222;-68
2023/08/21 04:36:39;;;;;;;14.82;8.85;;;;;;;24.98;75.76;101063.53;4860051;29;20361;-68
2023/08/21 04:39:07;;;;;;;11.10;8.15;;;;;;;24.99;75.56;101065.19;4862741;29;20984;-68
2023/08/21 04:41:36;;;;;;;11.35;8.70;;;;;;;25.00;75.89;101066.00;4861374;29;20955;-68
2023/08/21 04:44:04;;;;;;;9.65;7.97;;;;;;;24.97;75.82;101070.03;4863022;29;20223;-68
2023/08/21 04:46:32;;;;;;;14.68;9.18;;;;;;;24.98;75.73;101063.53;4859952;29;20211;-67
2023/08/21 04:49:01;;;;;;;10.85;8.07;;;;;;;24.97;75.81;101072.75;4860412;29;20255;-68
2023/08/21 04:51:28;;;;;;;12.85;9.40;;;;;;;24.98;75.79;101062.72;4860906;29;20286;-68
2023/08/21 04:53:56;;;;;;;11.73;8.45;;;;;;;24.96;75.72;101071.09;4862503;29;20352;-67
2023/08/21 04:56:24;;;;;;;10.82;8.55;;;;;;;24.96;75.68;101065.66;4861764;29;20979;-68
2023/08/21 04:58:53;;;;;;;14.27;9.50;;;;;;;24.98;75.89;101068.16;4858932;29;20244;-68
2023/08/21 05:01:20;;;;;;;11.90;8.98;;;;;;;24.95;75.71;101072.13;4861979;29;20243;-68
2023/08/21 05:03:48;;;;;;;10.45;8.63;;;;;;;24.96;75.81;101072.97;4859434;29;20221;-69
2023/08/21 05:06:17;;;;;;;10.35;8.73;;;;;;;24.95;75.86;101074.84;4862151;29;20226;-69
2023/08/21 05:08:45;;;;;;;12.60;8.98;;;;;;;24.95;75.77;101084.88;4860263;29;20304;-69
2023/08/21 05:11:13;;;;;;;14.18;8.57;;;;;;;24.93;76.03;101076.94;4861711;29;20202;-66
2023/08/21 05:13:40;;;;;;;14.43;9.52;;;;;;;24.93;76.24;101082.38;4862937;29;20243;-67
2023/08/21 05:16:08;;;;;;;9.82;7.95;;;;;;;24.93;76.33;101081.56;4860939;29;20211;-65
2023/08/21 05:18:36;;;;;;;12.73;8.30;;;;;;;24.91;76.27;101087.19;4863258;29;20295;-67
2023/08/21 05:21:04;;;;;;;13.95;8.48;;;;;;;24.93;76.34;101085.09;4861033;29;20217;-65
2023/08/21 05:23:33;;;;;;;10.77;8.55;;;;;;;24.90;76.95;101093.66;4861839;29;20606;-67
2023/08/21 05:26:01;;;;;;;13.57;8.95;;;;;;;24.88;77.30;101093.06;4861729;29;20643;-66
2023/08/21 05:28:28;;;;;;;13.98;8.98;;;;;;;24.88;77.25;101101.19;4861105;29;20211;-65
2023/08/21 05:30:57;;;;;;;10.15;8.48;;;;;;;24.91;77.05;101100.75;4860048;29;20785;-65
2023/08/21 05:33:25;;;;;;;16.10;8.65;;;;;;;24.96;76.97;101106.34;4865226;29;20211;-65
2023/08/21 05:35:53;;;;;;;9.82;8.77;;;;;;;24.98;76.62;101109.63;4863657;29;20210;-68
2023/08/21 05:38:21;;;;;;;10.70;8.13;;;;;;;24.98;77.53;101114.28;4859904;29;20234;-65
2023/08/21 05:40:50;;;;;;;12.35;7.97;;;;;;;25.00;77.26;101109.41;4861297;29;20210;-66
2023/08/21 05:43:18;;;;;;;10.52;8.02;;;;;;;25.00;77.18;101117.56;4860582;29;20237;-66
2023/08/21 05:45:47;;;;;;;13.38;7.95;;;;;;;25.03;76.89;101104.38;4859822;29;20342;-67
2023/08/21 05:48:16;;;;;;;11.85;7.95;;;;;;;25.07;76.63;101115.59;4861665;29;20835;-67
2023/08/21 05:50:44;;;;;;;9.85;8.25;;;;;;;25.09;76.71;101113.47;4862969;29;20212;-66
2023/08/21 05:53:12;;;;;;;12.93;9.02;;;;;;;25.10;76.67;101118.69;4860277;29;20210;-64
2023/08/21 05:55:39;;;;;;;12.07;8.80;;;;;;;25.15;76.28;101119.91;4861506;29;20941;-66
2023/08/21 05:58:08;;;;;;;11.35;8.00;;;;;;;25.18;76.18;101119.44;4858267;29;20661;-64
2023/08/21 06:00:36;;;;;;;10.88;8.20;;;;;;;25.19;76.08;101112.94;4860763;29;20677;-65
2023/08/21 06:03:04;;;;;;;9.57;8.10;;;;;;;25.22;76.21;101113.31;4859251;29;20274;-67
2023/08/21 06:05:32;;;;;;;11.80;8.20;;;;;;;25.22;76.31;101113.31;4862953;29;20214;-68
2023/08/21 06:08:01;;;;;;;18.30;8.68;;;;;;;25.23;76.14;101115.00;4861871;29;20450;-66
2023/08/21 06:10:28;;;;;;;12.90;9.77;;;;;;;25.26;75.97;101119.94;4859902;29;20615;-65
2023/08/21 06:12:56;;;;;;;14.57;10.07;;;;;;;25.30;76.10;101120.31;4863221;29;20218;-67
2023/08/21 06:15:25;;;;;;;12.52;10.05;;;;;;;25.34;75.44;101125.03;4858637;29;20291;-65
2023/08/21 06:17:53;;;;;;;12.88;9.45;;;;;;;25.35;75.47;101124.00;4858682;29;20307;-66
2023/08/21 06:20:21;;;;;;;14.10;10.00;;;;;;;25.39;75.62;101125.22;4859339;29;20246;-64
2023/08/21 06:22:49;;;;;;;14.15;9.80;;;;;;;25.41;74.92;101127.69;4858054;29;20732;-65
2023/08/21 06:25:19;;;;;;;12.88;9.40;;;;;;;25.44;75.14;101122.63;4859906;29;20213;-65
2023/08/21 06:27:46;;;;;;;13.63;9.45;;;;;;;25.48;74.57;101131.13;4856527;29;20301;-67
2023/08/21 06:30:27;;;;;;;13.05;10.15;;;;;;;25.49;74.46;101132.81;4855778;29;20261;-66
2023/08/21 06:32:55;;;;;;;13.88;9.95;;;;;;;25.50;74.16;101126.31;4856024;29;20307;-65
2023/08/21 06:35:23;;;;;;;11.90;9.65;;;;;;;25.51;73.96;101132.56;4856837;29;20991;-66
2023/08/21 06:37:51;;;;;;;16.73;10.80;;;;;;;25.52;73.50;101134.19;4856156;29;20265;-66
2023/08/21 06:40:18;;;;;;;18.33;9.38;;;;;;;25.55;73.64;101129.16;4858291;29;20214;-66
2023/08/21 06:42:46;;;;;;;14.63;10.43;;;;;;;25.59;73.09;101135.81;4858556;29;20237;-66
2023/08/21 06:45:14;;;;;;;13.30;9.13;;;;;;;25.64;73.22;101140.56;4857776;29;20214;-65
2023/08/21 06:47:43;;;;;;;11.65;9.35;;;;;;;25.63;72.88;101134.28;4856174;29;20305;-65
2023/08/21 06:50:11;;;;;;;15.13;9.80;;;;;;;25.63;72.73;101137.00;4856727;29;20301;-65
2023/08/21 06:52:39;;;;;;;13.80;9.77;;;;;;;25.65;72.61;101137.59;4857518;29;20211;-68
2023/08/21 06:55:08;;;;;;;11.93;9.93;;;;;;;25.66;72.71;101141.97;4857862;29;20222;-71
2023/08/21 06:57:37;;;;;;;16.77;10.02;;;;;;;25.70;72.08;101131.47;4859016;29;20293;-65
2023/08/21 07:00:06;;;;;;;14.93;10.15;;;;;;;25.73;71.95;101131.84;4858589;29;20214;-67
2023/08/21 07:02:34;;;;;;;11.75;8.80;;;;;;;25.75;71.97;101137.88;4865774;29;20289;-65
2023/08/21 07:05:04;;;;;;;11.13;9.40;;;;;;;25.77;71.77;101143.88;4857133;29;20218;-65
2023/08/21 07:07:32;;;;;;;15.43;9.88;;;;;;;25.80;72.14;101143.44;4854574;29;20298;-67
2023/08/21 07:09:59;;;;;;;12.52;9.48;;;;;;;25.82;72.04;101141.31;4856193;29;20214;-67
2023/08/21 07:12:27;;;;;;;13.55;9.80;;;;;;;25.84;71.57;101144.63;4857235;29;20222;-66
2023/08/21 07:14:55;;;;;;;18.33;10.75;;;;;;;25.88;71.66;101138.72;4856040;29;20274;-66
2023/08/21 07:17:23;;;;;;;18.45;10.93;;;;;;;25.94;71.33;101146.78;4854324;29;20220;-71
2023/08/21 07:19:52;;;;;;;18.13;10.88;;;;;;;25.97;71.13;101140.03;4857040;29;20234;-66
2023/08/21 07:22:21;;;;;;;14.52;9.73;;;;;;;26.03;70.82;101133.69;4857915;29;20214;-64
2023/08/21 07:24:49;;;;;;;15.25;9.75;;;;;;;26.05;71.31;101139.69;4858614;29;20206;-64
2023/08/21 07:27:16;;;;;;;17.90;9.88;;;;;;;26.09;71.67;101132.75;4858400;29;20206;-62
2023/08/21 07:29:44;;;;;;;15.25;9.93;;;;;;;26.11;71.37;101139.63;4859152;29;20250;-63
2023/08/21 07:32:13;;;;;;;18.42;10.80;;;;;;;26.16;71.93;101137.00;4857995;29;20686;-63
2023/08/21 07:34:40;;;;;;;15.73;10.52;;;;;;;26.20;72.23;101137.38;4860934;29;20746;-64
2023/08/21 07:37:09;;;;;;;14.07;10.30;;;;;;;26.25;71.44;101137.50;4860625;29;20567;-63
2023/08/21 07:39:38;;;;;;;12.95;9.98;;;;;;;26.31;72.24;101147.44;4860092;29;20705;-64
2023/08/21 07:42:06;;;;;;;18.13;9.90;;;;;;;26.36;71.79;101130.44;4860800;29;20325;-63
2023/08/21 07:44:34;;;;;;;13.32;10.10;;;;;;;26.41;72.04;101134.09;4859517;29;20251;-64
2023/08/21 07:47:01;;;;;;;17.67;9.60;;;;;;;26.48;72.33;101131.25;4861407;29;20298;-63
2023/08/21 07:49:29;;;;;;;12.80;10.15;;;;;;;26.56;72.54;101136.34;4860749;29;20219;-66
2023/08/21 07:51:57;;;;;;;13.23;10.32;;;;;;;26.64;71.95;101127.00;4861022;29;20214;-65
2023/08/21 07:54:24;;;;;;;12.18;10.23;;;;;;;26.70;71.17;101135.03;4863460;29;20218;-64
2023/08/21 07:56:53;;;;;;;11.73;10.20;;;;;;;26.80;71.20;101142.59;4860942;29;20210;-65
2023/08/21 07:59:22;;;;;;;15.90;9.43;;;;;;;26.88;70.51;101131.34;4863067;29;20337;-65
2023/08/21 08:01:49;;;;;;;13.35;9.93;;;;;;;26.99;70.25;101137.84;4863208;29;20752;-62
2023/08/21 08:04:17;;;;;;;12.25;9.13;;;;;;;27.10;70.31;101136.97;4861410;29;20632;-63
2023/08/21 08:06:45;;;;;;;11.05;9.90;;;;;;;27.24;70.11;101133.75;4862283;29;20301;-63
2023/08/21 08:09:13;;;;;;;15.52;10.70;;;;;;;27.35;68.81;101130.16;4861023;29;20653;-63
2023/08/21 08:11:40;;;;;;;14.73;9.13;;;;;;;27.46;68.27;101135.78;4859985;29;20211;-64
2023/08/21 08:14:09;;;;;;;12.07;9.57;;;;;;;27.54;68.77;101138.97;4861893;29;20218;-63
2023/08/21 08:16:37;;;;;;;16.88;9.73;;;;;;;27.63;68.43;101142.97;4863197;29;20213;-64
2023/08/21 08:19:05;;;;;;;17.75;10.20;;;;;;;27.74;68.08;101133.09;4863423;29;20852;-63
2023/08/21 08:21:33;;;;;;;15.38;9.30;;;;;;;27.85;67.21;101134.94;4861714;29;20211;-64
2023/08/21 08:24:00;;;;;;;15.30;9.43;;;;;;;27.97;66.46;101135.66;4861737;29;20253;-64
2023/08/21 08:26:28;;;;;;;11.38;9.02;;;;;;;28.09;66.50;101141.03;4862663;29;20290;-61
2023/08/21 08:28:58;;;;;;;11.73;9.60;;;;;;;28.23;65.64;101144.31;4860978;29;20636;-63
2023/08/21 08:31:27;;;;;;;12.27;9.32;;;;;;;28.34;65.83;101127.84;4861328;29;20222;-63
2023/08/21 08:33:55;;;;;;;19.60;10.45;;;;;;;28.44;65.56;101138.06;4857987;29;20219;-63
2023/08/21 08:36:23;;;;;;;16.05;9.68;;;;;;;28.57;64.53;101136.91;4862847;29;20210;-63
2023/08/21 08:38:50;;;;;;;15.23;9.65;;;;;;;28.65;63.79;101134.56;4859509;29;20278;-63
2023/08/21 08:41:28;;;;;;;17.00;9.70;;;;;;;28.76;62.87;101133.66;4854206;29;20317;-63
2023/08/21 08:43:58;;;;;;;11.48;8.90;;;;;;;28.88;61.63;101127.25;4861595;29;20280;-64
2023/08/21 08:46:30;;;;;;;13.95;8.98;;;;;;;28.97;61.49;101120.28;4861084;29;20214;-62
2023/08/21 08:48:59;;;;;;;14.65;8.68;;;;;;;29.07;61.48;101121.22;4859698;29;20234;-62
2023/08/21 08:51:30;;;;;;;19.30;9.63;;;;;;;29.20;61.92;101120.81;4859058;29;20325;-64
2023/08/21 08:53:59;;;;;;;12.13;8.48;;;;;;;29.30;60.92;101120.13;4860475;29;20222;-64
2023/08/21 08:56:27;;;;;;;14.73;8.57;;;;;;;29.39;59.83;101120.53;4861818;29;20743;-63
2023/08/21 08:58:55;;;;;;;15.98;8.43;;;;;;;29.48;60.13;101114.34;4860314;29;20581;-64
2023/08/21 09:01:22;;;;;;;14.02;9.23;;;;;;;29.57;60.27;101114.69;4858995;29;20221;-63
2023/08/21 09:03:51;;;;;;;13.93;8.38;;;;;;;29.67;59.45;101116.69;4860227;29;20908;-63
2023/08/21 09:06:19;;;;;;;12.52;8.63;;;;;;;29.77;59.41;101114.06;4860206;29;20214;-62
2023/08/21 09:08:54;;;;;;;20.55;8.80;;;;;;;29.88;59.22;101115.81;4861936;29;20238;-67
2023/08/21 09:11:22;;;;;;;10.90;8.20;;;;;;;29.97;57.63;101118.94;4860192;29;20220;-63
2023/08/21 09:13:51;;;;;;;13.35;8.23;;;;;;;30.06;57.82;101109.97;4861197;29;20756;-63
2023/08/21 09:16:19;;;;;;;14.25;7.85;;;;;;;30.14;56.65;101120.44;4858674;29;20976;-63
2023/08/21 09:18:49;;;;;;;12.63;7.07;;;;;;;30.24;55.60;101112.31;4860485;29;20295;-63
2023/08/21 09:21:19;;;;;;;13.35;7.85;;;;;;;30.34;56.25;101113.47;4859621;29;20226;-63
2023/08/21 09:23:47;;;;;;;10.35;7.57;;;;;;;30.43;55.56;101104.50;4857466;29;20237;-63
2023/08/21 09:26:20;;;;;;;14.18;8.27;;;;;;;30.53;54.60;101101.81;4859886;29;20301;-63
2023/08/21 09:28:49;;;;;;;10.32;7.50;;;;;;;30.65;56.32;101104.38;4861427;29;20221;-62
2023/08/21 09:31:17;;;;;;;14.30;8.55;;;;;;;30.77;55.14;101107.72;4859911;29;20306;-65
2023/08/21 09:33:44;;;;;;;9.95;7.07;;;;;;;30.88;54.64;101109.38;4858156;29;20218;-63
2023/08/21 09:36:12;;;;;;;14.52;7.75;;;;;;;30.99;54.55;101099.31;4859842;29;20681;-65
2023/08/21 09:38:47;;;;;;;15.07;8.10;;;;;;;31.07;54.51;101095.22;4857189;29;20741;-62
2023/08/21 09:41:19;;;;;;;12.43;8.38;;;;;;;31.12;54.76;101090.63;4860510;29;20218;-64
2023/08/21 09:43:47;;;;;;;10.90;6.80;;;;;;;31.20;53.92;101089.28;4858127;29;20532;-63
2023/08/21 09:46:16;;;;;;;10.50;6.93;;;;;;;31.23;53.53;101095.03;4860887;29;20305;-64
2023/08/21 09:48:46;;;;;;;13.02;7.85;;;;;;;31.26;53.51;101093.66;4861258;29;20774;-63
2023/08/21 09:51:14;;;;;;;16.75;7.28;;;;;;;31.27;52.54;101095.31;4861028;29;20301;-65
2023/08/21 09:53:44;;;;;;;10.82;7.53;;;;;;;31.33;52.78;101099.72;4859490;29;20261;-63
2023/08/21 09:56:12;;;;;;;9.35;6.72;;;;;;;31.35;52.92;101092.03;4858974;29;20311;-63
2023/08/21 09:58:41;;;;;;;9.88;6.75;;;;;;;31.37;52.27;101090.69;4858994;29;20273;-63
2023/08/21 10:01:13;;;;;;;9.32;6.32;;;;;;;31.48;51.93;101091.53;4861765;29;20257;-64
2023/08/21 10:03:47;;;;;;;12.60;7.10;;;;;;;31.59;51.69;101093.16;4858878;29;20227;-64
2023/08/21 10:06:17;;;;;;;11.20;7.72;;;;;;;31.70;50.96;101092.13;4860646;29;20210;-64
2023/08/21 10:08:51;;;;;;;10.02;6.60;;;;;;;31.81;50.28;101097.63;4859896;29;20298;-64
2023/08/21 10:11:22;;;;;;;9.60;6.28;;;;;;;31.79;51.19;101092.41;4860892;29;20297;-63
2023/08/21 10:13:51;;;;;;;12.90;5.95;;;;;;;31.63;51.17;101083.34;4858945;29;20683;-63
2023/08/21 10:16:21;;;;;;;8.75;5.57;;;;;;;31.39;49.66;101088.50;4858923;29;20297;-63
2023/08/21 10:18:49;;;;;;;8.32;5.90;;;;;;;31.27;50.46;101089.84;4861174;29;20215;-65
2023/08/21 10:21:19;;;;;;;9.48;6.05;;;;;;;31.16;52.95;101086.25;4862286;29;20229;-64
2023/08/21 10:23:58;;;;;;;8.18;6.18;;;;;;;31.12;52.45;101081.59;4858585;29;20217;-64
2023/08/21 10:26:27;;;;;;;9.57;7.25;;;;;;;31.11;52.98;101079.94;4861337;29;20661;-61
2023/08/21 10:29:02;;;;;;;11.25;6.60;;;;;;;31.29;51.67;101076.69;4857359;29;20217;-62
2023/08/21 10:31:33;;;;;;;9.75;5.97;;;;;;;31.55;49.36;101075.66;4858902;29;20685;-64
2023/08/21 10:34:04;;;;;;;9.05;6.70;;;;;;;31.61;48.91;101073.72;4857753;29;20772;-66
2023/08/21 10:37:09;;;;;;;8.23;6.22;;;;;;;31.47;49.17;101067.97;4859673;29;20211;-64
2023/08/21 10:39:39;;;;;;;12.40;8.32;;;;;;;31.46;49.73;101074.53;4859147;29;21213;-64
2023/08/21 10:42:13;;;;;;;11.65;5.78;;;;;;;31.63;48.35;101072.38;4857413;29;20234;-64
2023/08/21 10:44:51;;;;;;;11.02;5.68;;;;;;;31.75;47.88;101059.22;4858869;29;20723;-63
2023/08/21 10:47:22;;;;;;;8.68;5.05;;;;;;;31.76;47.65;101060.84;4858622;29;20377;-63
2023/08/21 10:49:53;;;;;;;9.25;5.35;;;;;;;31.66;47.42;101058.16;4859807;29;20222;-62
2023/08/21 10:52:25;;;;;;;10.30;5.95;;;;;;;31.52;47.96;101057.00;4858858;29;20217;-64
2023/08/21 10:54:58;;;;;;;15.85;6.85;;;;;;;31.84;47.45;101048.50;4859769;29;20278;-63
2023/08/21 10:57:28;;;;;;;11.93;5.90;;;;;;;32.88;44.97;101049.66;4860043;29;20270;-64
2023/08/21 10:59:57;;;;;;;11.88;7.20;;;;;;;34.12;42.10;101046.56;4858552;29;21061;-62
2023/08/21 11:02:28;;;;;;;7.82;5.88;;;;;;;35.45;39.37;101039.91;4857933;29;20981;-64
2023/08/21 11:04:57;;;;;;;8.90;6.15;;;;;;;37.16;35.88;101042.44;4861013;29;20210;-63
2023/08/21 11:07:27;;;;;;;8.23;4.72;;;;;;;37.43;34.46;101040.69;4859390;29;20215;-63
2023/08/21 11:09:55;;;;;;;10.48;4.80;;;;;;;36.20;35.89;101038.91;4862394;29;20658;-62
2023/08/21 11:12:25;;;;;;;7.03;3.95;;;;;;;36.59;36.12;101037.59;4862598;29;20211;-64
2023/08/21 11:14:52;;;;;;;8.27;6.32;;;;;;;39.89;31.60;101023.75;4862641;29;20210;-64
2023/08/21 11:17:20;;;;;;;13.23;7.68;;;;;;;42.24;28.77;101028.81;4864487;29;20254;-63
2023/08/21 11:19:49;;;;;;;8.40;5.53;;;;;;;44.80;25.85;101018.06;4861757;29;20214;-64
2023/08/21 11:22:17;;;;;;;8.95;6.30;;;;;;;46.87;22.92;101014.19;4863638;29;20245;-62
2023/08/21 11:24:48;;;;;;;7.53;4.93;;;;;;;48.09;21.21;101006.69;4861163;29;20306;-63
2023/08/21 11:27:18;;;;;;;7.30;4.68;;;;;;;48.73;20.86;101009.94;4863132;29;20790;-63